sensor_id;sensor_type;location;lat;lon;timestamp;pressure;altitude;pressure_sealevel;temperature;humidity
29169;BME280;16219;42.864;23.360;2023-04-08T00:01:28;95971.03;;;4.87;100.00
29169;BME280;16219;42.864;23.360;2023-04-08T00:03:55;95945.56;;;4.54;100.00
29169;BME280;16219;42.864;23.360;2023-04-08T00:06:22;95973.22;;;4.65;100.00
29169;BME280;16219;42.864;23.360;2023-04-08T00:08:49;95967.22;;;4.64;100.00
29169;BME280;16219;42.864;23.360;2023-04-08T00:11:16;95977.16;;;4.67;100.00
29169;BME280;16219;42.864;23.360;2023-04-08T00:13:45;95969.56;;;4.66;100.00
29169;BME280;16219;42.864;23.360;2023-04-08T00:16:12;95973.47;;;4.68;100.00
29169;BME280;16219;42.864;23.360;2023-04-08T00:18:39;95969.84;;;4.64;100.00
29169;BME280;16219;42.864;23.360;2023-04-08T00:21:07;95973.25;;;4.60;100.00
29169;BME280;16219;42.864;23.360;2023-04-08T00:23:34;95972.97;;;4.61;100.00
29169;BME280;16219;42.864;23.360;2023-04-08T00:26:02;95972.78;;;4.42;100.00
29169;BME280;16219;42.864;23.360;2023-04-08T00:28:29;95975.16;;;4.39;100.00
29169;BME280;16219;42.864;23.360;2023-04-08T00:30:58;95971.75;;;4.33;100.00
29169;BME280;16219;42.864;23.360;2023-04-08T00:33:25;95975.94;;;4.39;100.00
29169;BME280;16219;42.864;23.360;2023-04-08T00:35:52;95965.97;;;4.51;100.00
29169;BME280;16219;42.864;23.360;2023-04-08T00:38:19;95969.34;;;4.57;100.00
29169;BME280;16219;42.864;23.360;2023-04-08T00:40:46;95961.22;;;4.64;100.00
29169;BME280;16219;42.864;23.360;2023-04-08T00:43:14;95969.06;;;4.59;100.00
29169;BME280;16219;42.864;23.360;2023-04-08T00:45:45;95958.13;;;4.51;100.00
29169;BME280;16219;42.864;23.360;2023-04-08T00:48:14;95963.59;;;4.55;100.00
29169;BME280;16219;42.864;23.360;2023-04-08T00:50:42;95963.84;;;4.54;100.00
29169;BME280;16219;42.864;23.360;2023-04-08T00:53:10;95966.44;;;4.59;100.00
29169;BME280;16219;42.864;23.360;2023-04-08T00:55:38;95965.41;;;4.60;100.00
29169;BME280;16219;42.864;23.360;2023-04-08T00:58:05;95961.78;;;4.56;100.00
29169;BME280;16219;42.864;23.360;2023-04-08T01:00:34;95969.34;;;4.57;100.00
29169;BME280;16219;42.864;23.360;2023-04-08T01:03:09;95976.44;;;4.46;100.00
29169;BME280;16219;42.864;23.360;2023-04-08T01:05:49;95973.84;;;4.31;100.00
29169;BME280;16219;42.864;23.360;2023-04-08T01:08:20;95970.16;;;4.37;100.00
29169;BME280;16219;42.864;23.360;2023-04-08T01:10:53;95968.13;;;4.29;100.00
29169;BME280;16219;42.864;23.360;2023-04-08T01:13:22;95971.25;;;4.26;100.00
29169;BME280;16219;42.864;23.360;2023-04-08T01:15:52;95964.47;;;4.25;100.00
29169;BME280;16219;42.864;23.360;2023-04-08T01:18:20;95970.75;;;4.29;100.00
29169;BME280;16219;42.864;23.360;2023-04-08T01:20:50;95975.41;;;4.32;100.00
29169;BME280;16219;42.864;23.360;2023-04-08T01:23:24;95969.66;;;4.40;100.00
29169;BME280;16219;42.864;23.360;2023-04-08T01:25:57;95952.91;;;4.41;100.00
29169;BME280;16219;42.864;23.360;2023-04-08T01:28:28;95953.97;;;4.40;100.00
29169;BME280;16219;42.864;23.360;2023-04-08T01:30:59;95970.41;;;4.51;100.00
29169;BME280;16219;42.864;23.360;2023-04-08T01:33:28;95967.53;;;4.53;100.00
29169;BME280;16219;42.864;23.360;2023-04-08T01:35:58;95974.06;;;4.55;100.00
29169;BME280;16219;42.864;23.360;2023-04-08T01:38:29;95977.16;;;4.57;100.00
29169;BME280;16219;42.864;23.360;2023-04-08T01:40:59;95979.78;;;4.57;100.00
29169;BME280;16219;42.864;23.360;2023-04-08T01:43:28;95971.22;;;4.46;100.00
29169;BME280;16219;42.864;23.360;2023-04-08T01:45:57;95970.66;;;4.49;100.00
29169;BME280;16219;42.864;23.360;2023-04-08T01:48:42;95976.41;;;4.57;100.00
29169;BME280;16219;42.864;23.360;2023-04-08T01:51:10;95975.09;;;4.54;100.00
29169;BME280;16219;42.864;23.360;2023-04-08T01:53:38;95985.28;;;4.56;100.00
29169;BME280;16219;42.864;23.360;2023-04-08T01:56:11;95971.72;;;4.48;100.00
29169;BME280;16219;42.864;23.360;2023-04-08T01:58:43;95987.91;;;4.56;100.00
29169;BME280;16219;42.864;23.360;2023-04-08T02:01:16;95983.94;;;4.58;100.00
29169;BME280;16219;42.864;23.360;2023-04-08T02:03:44;95986.06;;;4.46;100.00
29169;BME280;16219;42.864;23.360;2023-04-08T02:06:12;95994.19;;;4.55;100.00
29169;BME280;16219;42.864;23.360;2023-04-08T02:08:39;95994.16;;;4.60;100.00
29169;BME280;16219;42.864;23.360;2023-04-08T02:11:08;95995.19;;;4.59;100.00
29169;BME280;16219;42.864;23.360;2023-04-08T02:13:35;95996.00;;;4.59;100.00
29169;BME280;16219;42.864;23.360;2023-04-08T02:16:07;96004.06;;;4.58;100.00
29169;BME280;16219;42.864;23.360;2023-04-08T02:18:38;96001.72;;;4.61;100.00
29169;BME280;16219;42.864;23.360;2023-04-08T02:21:10;96007.22;;;4.60;100.00
29169;BME280;16219;42.864;23.360;2023-04-08T02:23:39;96002.78;;;4.60;100.00
29169;BME280;16219;42.864;23.360;2023-04-08T02:26:12;95999.38;;;4.60;100.00
29169;BME280;16219;42.864;23.360;2023-04-08T02:28:41;96005.63;;;4.59;100.00
29169;BME280;16219;42.864;23.360;2023-04-08T02:31:10;96001.22;;;4.59;100.00
29169;BME280;16219;42.864;23.360;2023-04-08T02:33:43;96001.47;;;4.53;100.00
29169;BME280;16219;42.864;23.360;2023-04-08T02:36:12;96006.97;;;4.56;100.00
29169;BME280;16219;42.864;23.360;2023-04-08T02:38:40;96004.59;;;4.60;100.00
29169;BME280;16219;42.864;23.360;2023-04-08T02:41:09;96004.63;;;4.55;100.00
29169;BME280;16219;42.864;23.360;2023-04-08T02:43:35;96003.03;;;4.59;100.00
29169;BME280;16219;42.864;23.360;2023-04-08T02:46:05;96005.09;;;4.62;100.00
29169;BME280;16219;42.864;23.360;2023-04-08T02:48:34;96001.44;;;4.63;100.00
29169;BME280;16219;42.864;23.360;2023-04-08T02:51:01;95997.53;;;4.60;100.00
29169;BME280;16219;42.864;23.360;2023-04-08T02:53:28;95991.53;;;4.65;100.00
29169;BME280;16219;42.864;23.360;2023-04-08T02:55:55;95997.81;;;4.64;100.00
29169;BME280;16219;42.864;23.360;2023-04-08T02:58:24;96000.91;;;4.66;100.00
29169;BME280;16219;42.864;23.360;2023-04-08T03:00:51;96004.06;;;4.68;100.00
29169;BME280;16219;42.864;23.360;2023-04-08T03:03:18;96007.69;;;4.67;100.00
29169;BME280;16219;42.864;23.360;2023-04-08T03:05:51;95982.69;;;4.50;100.00
29169;BME280;16219;42.864;23.360;2023-04-08T03:08:18;95996.47;;;4.66;100.00
29169;BME280;16219;42.864;23.360;2023-04-08T03:10:45;95999.09;;;4.66;100.00
29169;BME280;16219;42.864;23.360;2023-04-08T03:13:13;96003.56;;;4.61;100.00
29169;BME280;16219;42.864;23.360;2023-04-08T03:15:42;96003.81;;;4.64;100.00
29169;BME280;16219;42.864;23.360;2023-04-08T03:18:09;95999.88;;;4.62;100.00
29169;BME280;16219;42.864;23.360;2023-04-08T03:20:36;96000.66;;;4.62;100.00
29169;BME280;16219;42.864;23.360;2023-04-08T03:23:03;95997.53;;;4.65;100.00
29169;BME280;16219;42.864;23.360;2023-04-08T03:25:30;95996.72;;;4.70;100.00
29169;BME280;16219;42.864;23.360;2023-04-08T03:27:57;95994.38;;;4.68;100.00
29169;BME280;16219;42.864;23.360;2023-04-08T03:30:24;95998.84;;;4.68;100.00
29169;BME280;16219;42.864;23.360;2023-04-08T03:32:53;95997.03;;;4.63;100.00
29169;BME280;16219;42.864;23.360;2023-04-08T03:35:20;96003.03;;;4.64;100.00
29169;BME280;16219;42.864;23.360;2023-04-08T03:37:47;95992.34;;;4.50;100.00
29169;BME280;16219;42.864;23.360;2023-04-08T03:40:14;96013.50;;;4.54;100.00
29169;BME280;16219;42.864;23.360;2023-04-08T03:42:41;95990.31;;;4.32;100.00
29169;BME280;16219;42.864;23.360;2023-04-08T03:45:08;96002.63;;;4.21;100.00
29169;BME280;16219;42.864;23.360;2023-04-08T03:47:35;96002.34;;;4.22;100.00
29169;BME280;16219;42.864;23.360;2023-04-08T03:50:04;96008.09;;;4.30;100.00
29169;BME280;16219;42.864;23.360;2023-04-08T03:52:31;96004.69;;;4.34;100.00
29169;BME280;16219;42.864;23.360;2023-04-08T03:54:58;96011.97;;;4.32;100.00
29169;BME280;16219;42.864;23.360;2023-04-08T03:57:25;96001.28;;;4.29;100.00
29169;BME280;16219;42.864;23.360;2023-04-08T03:59:52;96008.88;;;4.25;100.00
29169;BME280;16219;42.864;23.360;2023-04-08T04:02:19;96006.00;;;4.21;100.00
29169;BME280;16219;42.864;23.360;2023-04-08T04:04:46;96009.91;;;4.24;100.00
29169;BME280;16219;42.864;23.360;2023-04-08T04:07:14;96003.09;;;4.33;100.00
29169;BME280;16219;42.864;23.360;2023-04-08T04:09:41;96001.50;;;4.37;100.00
29169;BME280;16219;42.864;23.360;2023-04-08T04:12:08;96003.59;;;4.40;100.00
29169;BME280;16219;42.864;23.360;2023-04-08T04:14:35;96007.78;;;4.36;100.00
29169;BME280;16219;42.864;23.360;2023-04-08T04:17:02;96006.78;;;4.27;100.00
29169;BME280;16219;42.864;23.360;2023-04-08T04:19:29;96016.16;;;4.38;100.00
29169;BME280;16219;42.864;23.360;2023-04-08T04:21:57;96008.84;;;4.30;100.00
29169;BME280;16219;42.864;23.360;2023-04-08T04:24:25;96009.34;;;4.37;100.00
29169;BME280;16219;42.864;23.360;2023-04-08T04:26:52;96011.47;;;4.30;100.00
29169;BME280;16219;42.864;23.360;2023-04-08T04:29:20;96017.19;;;4.32;100.00
29169;BME280;16219;42.864;23.360;2023-04-08T04:31:47;96028.16;;;4.39;100.00
29169;BME280;16219;42.864;23.360;2023-04-08T04:34:14;96022.97;;;4.29;100.00
29169;BME280;16219;42.864;23.360;2023-04-08T04:36:42;96029.19;;;4.43;100.00
29169;BME280;16219;42.864;23.360;2023-04-08T04:39:09;96022.13;;;4.49;100.00
29169;BME280;16219;42.864;23.360;2023-04-08T04:41:38;96025.53;;;4.55;100.00
29169;BME280;16219;42.864;23.360;2023-04-08T04:44:05;96016.63;;;4.56;100.00
29169;BME280;16219;42.864;23.360;2023-04-08T04:46:32;96024.97;;;4.68;100.00
29169;BME280;16219;42.864;23.360;2023-04-08T04:48:59;96028.09;;;4.70;100.00
29169;BME280;16219;42.864;23.360;2023-04-08T04:51:27;96025.22;;;4.61;100.00
29169;BME280;16219;42.864;23.360;2023-04-08T04:53:54;96022.84;;;4.70;100.00
29169;BME280;16219;42.864;23.360;2023-04-08T04:56:21;96021.78;;;4.81;100.00
29169;BME280;16219;42.864;23.360;2023-04-08T04:58:49;96025.94;;;4.82;100.00
29169;BME280;16219;42.864;23.360;2023-04-08T05:01:16;96017.84;;;4.84;100.00
29169;BME280;16219;42.864;23.360;2023-04-08T05:03:43;96019.94;;;4.82;100.00
29169;BME280;16219;42.864;23.360;2023-04-08T05:06:11;96020.16;;;4.95;100.00
29169;BME280;16219;42.864;23.360;2023-04-08T05:08:38;96027.69;;;5.07;100.00
29169;BME280;16219;42.864;23.360;2023-04-08T05:11:08;96017.50;;;5.00;100.00
29169;BME280;16219;42.864;23.360;2023-04-08T05:13:44;96026.91;;;5.07;100.00
29169;BME280;16219;42.864;23.360;2023-04-08T05:16:12;96022.94;;;5.14;100.00
29169;BME280;16219;42.864;23.360;2023-04-08T05:18:40;96031.56;;;5.10;100.00
29169;BME280;16219;42.864;23.360;2023-04-08T05:21:07;96027.59;;;5.28;100.00
29169;BME280;16219;42.864;23.360;2023-04-08T05:23:35;96027.28;;;5.34;100.00
29169;BME280;16219;42.864;23.360;2023-04-08T05:26:04;96034.09;;;5.35;100.00
29169;BME280;16219;42.864;23.360;2023-04-08T05:28:32;96021.56;;;5.27;100.00
29169;BME280;16219;42.864;23.360;2023-04-08T05:31:00;96013.19;;;5.25;100.00
29169;BME280;16219;42.864;23.360;2023-04-08T05:33:28;96027.44;;;5.53;100.00
29169;BME280;16219;42.864;23.360;2023-04-08T05:35:56;96022.91;;;5.64;100.00
29169;BME280;16219;42.864;23.360;2023-04-08T05:38:23;96022.41;;;5.62;100.00
29169;BME280;16219;42.864;23.360;2023-04-08T05:40:51;96017.16;;;5.62;100.00
29169;BME280;16219;42.864;23.360;2023-04-08T05:43:18;96022.84;;;5.74;100.00
29169;BME280;16219;42.864;23.360;2023-04-08T05:45:46;96026.47;;;5.78;100.00
29169;BME280;16219;42.864;23.360;2023-04-08T05:48:13;96027.16;;;5.89;100.00
29169;BME280;16219;42.864;23.360;2023-04-08T05:50:42;96027.13;;;5.99;100.00
29169;BME280;16219;42.864;23.360;2023-04-08T05:53:09;96037.50;;;6.09;100.00
29169;BME280;16219;42.864;23.360;2023-04-08T05:55:36;96031.09;;;6.25;100.00
29169;BME280;16219;42.864;23.360;2023-04-08T05:58:03;96031.75;;;6.36;100.00
29169;BME280;16219;42.864;23.360;2023-04-08T06:00:30;96019.72;;;6.35;100.00
29169;BME280;16219;42.864;23.360;2023-04-08T06:02:58;96030.06;;;6.50;100.00
29169;BME280;16219;42.864;23.360;2023-04-08T06:05:25;96028.47;;;6.55;100.00
29169;BME280;16219;42.864;23.360;2023-04-08T06:07:53;96034.28;;;6.70;100.00
29169;BME280;16219;42.864;23.360;2023-04-08T06:10:21;96026.19;;;6.67;100.00
29169;BME280;16219;42.864;23.360;2023-04-08T06:12:48;96030.22;;;6.83;100.00
29169;BME280;16219;42.864;23.360;2023-04-08T06:15:15;96030.06;;;6.98;100.00
29169;BME280;16219;42.864;23.360;2023-04-08T06:17:43;96024.47;;;7.05;100.00
29169;BME280;16219;42.864;23.360;2023-04-08T06:20:10;96015.81;;;7.05;100.00
29169;BME280;16219;42.864;23.360;2023-04-08T06:22:37;96024.75;;;7.04;100.00
29169;BME280;16219;42.864;23.360;2023-04-08T06:25:06;96008.75;;;7.05;100.00
29169;BME280;16219;42.864;23.360;2023-04-08T06:27:34;96026.75;;;7.12;100.00
29169;BME280;16219;42.864;23.360;2023-04-08T06:30:01;96020.28;;;7.04;100.00
29169;BME280;16219;42.864;23.360;2023-04-08T06:32:29;96006.53;;;7.12;100.00
29169;BME280;16219;42.864;23.360;2023-04-08T06:34:56;96022.50;;;7.16;100.00
29169;BME280;16219;42.864;23.360;2023-04-08T06:37:23;96008.19;;;7.27;100.00
29169;BME280;16219;42.864;23.360;2023-04-08T06:39:51;96008.47;;;7.44;100.00
29169;BME280;16219;42.864;23.360;2023-04-08T06:42:19;96017.34;;;7.48;100.00
29169;BME280;16219;42.864;23.360;2023-04-08T06:45:05;96008.38;;;7.68;100.00
29169;BME280;16219;42.864;23.360;2023-04-08T06:47:33;96008.44;;;7.82;100.00
29169;BME280;16219;42.864;23.360;2023-04-08T06:50:00;96012.88;;;8.00;100.00
29169;BME280;16219;42.864;23.360;2023-04-08T06:52:27;96017.38;;;8.14;100.00
29169;BME280;16219;42.864;23.360;2023-04-08T06:54:54;96015.31;;;8.11;100.00
29169;BME280;16219;42.864;23.360;2023-04-08T06:57:23;96016.91;;;8.12;100.00
29169;BME280;16219;42.864;23.360;2023-04-08T06:59:50;96022.75;;;8.22;100.00
29169;BME280;16219;42.864;23.360;2023-04-08T07:02:18;96022.88;;;8.31;100.00
29169;BME280;16219;42.864;23.360;2023-04-08T07:04:46;96016.63;;;8.27;100.00
29169;BME280;16219;42.864;23.360;2023-04-08T07:07:13;96023.41;;;8.47;100.00
29169;BME280;16219;42.864;23.360;2023-04-08T07:09:40;96031.72;;;8.35;100.00
29169;BME280;16219;42.864;23.360;2023-04-08T07:12:10;96018.13;;;8.33;100.00
29169;BME280;16219;42.864;23.360;2023-04-08T07:14:39;96026.34;;;8.45;100.00
29169;BME280;16219;42.864;23.360;2023-04-08T07:17:06;96030.53;;;8.46;100.00
29169;BME280;16219;42.864;23.360;2023-04-08T07:19:33;96033.94;;;8.61;100.00
29169;BME280;16219;42.864;23.360;2023-04-08T07:22:00;96033.78;;;8.71;100.00
29169;BME280;16219;42.864;23.360;2023-04-08T07:24:28;96034.03;;;8.83;100.00
29169;BME280;16219;42.864;23.360;2023-04-08T07:26:55;96033.47;;;8.86;100.00
29169;BME280;16219;42.864;23.360;2023-04-08T07:29:22;96041.34;;;9.00;100.00
29169;BME280;16219;42.864;23.360;2023-04-08T07:31:51;96034.91;;;9.20;100.00
29169;BME280;16219;42.864;23.360;2023-04-08T07:34:18;96036.19;;;9.22;100.00
29169;BME280;16219;42.864;23.360;2023-04-08T07:36:46;96042.50;;;9.35;100.00
29169;BME280;16219;42.864;23.360;2023-04-08T07:39:13;96042.50;;;9.35;100.00
29169;BME280;16219;42.864;23.360;2023-04-08T07:41:40;96046.19;;;9.34;100.00
29169;BME280;16219;42.864;23.360;2023-04-08T07:44:07;96049.31;;;9.36;100.00
29169;BME280;16219;42.864;23.360;2023-04-08T07:46:36;96052.13;;;9.40;100.00
29169;BME280;16219;42.864;23.360;2023-04-08T07:49:05;96050.25;;;9.54;100.00
29169;BME280;16219;42.864;23.360;2023-04-08T07:51:32;96048.38;;;9.55;100.00
29169;BME280;16219;42.864;23.360;2023-04-08T07:53:59;96058.41;;;9.66;100.00
29169;BME280;16219;42.864;23.360;2023-04-08T07:56:27;96055.44;;;9.82;100.00
29169;BME280;16219;42.864;23.360;2023-04-08T07:58:54;96065.44;;;9.93;100.00
29169;BME280;16219;42.864;23.360;2023-04-08T08:01:22;96065.44;;;9.93;100.00
29169;BME280;16219;42.864;23.360;2023-04-08T08:03:50;96068.44;;;10.00;100.00
29169;BME280;16219;42.864;23.360;2023-04-08T08:06:19;96062.72;;;9.98;100.00
29169;BME280;16219;42.864;23.360;2023-04-08T08:08:46;96057.31;;;10.04;100.00
29169;BME280;16219;42.864;23.360;2023-04-08T08:11:13;96062.16;;;10.10;100.00
29169;BME280;16219;42.864;23.360;2023-04-08T08:13:40;96063.59;;;10.16;100.00
29169;BME280;16219;42.864;23.360;2023-04-08T08:16:08;96070.88;;;10.33;100.00
29169;BME280;16219;42.864;23.360;2023-04-08T08:18:36;96067.97;;;10.43;98.99
29169;BME280;16219;42.864;23.360;2023-04-08T08:21:04;96069.75;;;10.57;98.83
29169;BME280;16219;42.864;23.360;2023-04-08T08:23:33;96070.28;;;10.67;99.86
29169;BME280;16219;42.864;23.360;2023-04-08T08:26:01;96065.78;;;10.68;100.00
29169;BME280;16219;42.864;23.360;2023-04-08T08:28:29;96075.59;;;10.76;93.87
29169;BME280;16219;42.864;23.360;2023-04-08T08:30:56;96073.91;;;10.80;98.02
29169;BME280;16219;42.864;23.360;2023-04-08T08:33:23;96072.44;;;10.96;98.41
29169;BME280;16219;42.864;23.360;2023-04-08T08:35:50;96073.66;;;10.99;94.89
29169;BME280;16219;42.864;23.360;2023-04-08T08:38:18;96072.53;;;10.91;100.00
29169;BME280;16219;42.864;23.360;2023-04-08T08:40:46;96075.22;;;11.00;98.24
29169;BME280;16219;42.864;23.360;2023-04-08T08:43:19;96079.09;;;10.94;97.53
29169;BME280;16219;42.864;23.360;2023-04-08T08:45:46;96078.31;;;10.93;100.00
29169;BME280;16219;42.864;23.360;2023-04-08T08:48:13;96054.94;;;10.78;95.69
29169;BME280;16219;42.864;23.360;2023-04-08T08:50:41;96070.19;;;10.81;96.87
29169;BME280;16219;42.864;23.360;2023-04-08T08:53:08;96076.78;;;10.70;96.19
29169;BME280;16219;42.864;23.360;2023-04-08T08:55:35;96076.75;;;10.61;99.43
29169;BME280;16219;42.864;23.360;2023-04-08T08:58:06;96086.72;;;10.64;100.00
29169;BME280;16219;42.864;23.360;2023-04-08T09:00:33;96077.72;;;10.65;100.00
29169;BME280;16219;42.864;23.360;2023-04-08T09:03:15;96078.19;;;10.67;100.00
29169;BME280;16219;42.864;23.360;2023-04-08T09:05:50;96068.06;;;10.61;100.00
29169;BME280;16219;42.864;23.360;2023-04-08T09:08:25;96076.75;;;10.61;100.00
29169;BME280;16219;42.864;23.360;2023-04-08T09:10:52;96075.41;;;10.72;100.00
29169;BME280;16219;42.864;23.360;2023-04-08T09:13:22;96050.91;;;10.72;96.71
29169;BME280;16219;42.864;23.360;2023-04-08T09:16:01;96068.28;;;10.73;93.56
29169;BME280;16219;42.864;23.360;2023-04-08T09:18:29;96060.19;;;10.69;93.28
29169;BME280;16219;42.864;23.360;2023-04-08T09:20:58;96070.75;;;10.69;96.16
29169;BME280;16219;42.864;23.360;2023-04-08T09:23:40;96076.41;;;10.85;90.97
29169;BME280;16219;42.864;23.360;2023-04-08T09:26:08;96060.28;;;10.95;92.97
29169;BME280;16219;42.864;23.360;2023-04-08T09:28:38;96071.41;;;11.23;97.65
29169;BME280;16219;42.864;23.360;2023-04-08T09:31:28;96069.59;;;11.50;93.52
29169;BME280;16219;42.864;23.360;2023-04-08T09:33:57;96071.97;;;11.60;87.49
29169;BME280;16219;42.864;23.360;2023-04-08T09:36:25;96069.63;;;11.76;92.72
29169;BME280;16219;42.864;23.360;2023-04-08T09:38:53;96073.09;;;12.03;94.44
29169;BME280;16219;42.864;23.360;2023-04-08T09:41:21;96070.28;;;12.25;81.72
29169;BME280;16219;42.864;23.360;2023-04-08T09:43:53;96062.00;;;12.35;78.17
29169;BME280;16219;42.864;23.360;2023-04-08T09:46:25;96065.22;;;12.58;77.64
29169;BME280;16219;42.864;23.360;2023-04-08T09:49:03;96057.97;;;12.85;85.27
29169;BME280;16219;42.864;23.360;2023-04-08T09:51:33;96053.09;;;12.95;71.17
29169;BME280;16219;42.864;23.360;2023-04-08T09:54:08;96053.84;;;13.05;75.45
29169;BME280;16219;42.864;23.360;2023-04-08T09:56:40;96054.56;;;13.14;67.42
29169;BME280;16219;42.864;23.360;2023-04-08T09:59:13;96044.56;;;13.19;70.59
29169;BME280;16219;42.864;23.360;2023-04-08T10:01:45;96043.63;;;13.24;65.96
29169;BME280;16219;42.864;23.360;2023-04-08T10:04:18;96022.94;;;13.17;65.40
29169;BME280;16219;42.864;23.360;2023-04-08T10:06:51;96038.09;;;13.38;65.73
29169;BME280;16219;42.864;23.360;2023-04-08T10:09:20;96033.22;;;13.69;67.53
29169;BME280;16219;42.864;23.360;2023-04-08T10:11:49;96027.44;;;13.88;66.44
29169;BME280;16219;42.864;23.360;2023-04-08T10:14:17;96026.63;;;14.09;58.57
29169;BME280;16219;42.864;23.360;2023-04-08T10:16:46;96023.13;;;14.17;59.19
29169;BME280;16219;42.864;23.360;2023-04-08T10:19:35;96011.81;;;14.08;55.56
29169;BME280;16219;42.864;23.360;2023-04-08T10:25:28;96003.72;;;13.71;57.28
29169;BME280;16219;42.864;23.360;2023-04-08T10:27:56;95998.81;;;13.61;53.59
29169;BME280;16219;42.864;23.360;2023-04-08T10:30:41;96001.53;;;13.73;50.91
29169;BME280;16219;42.864;23.360;2023-04-08T10:33:14;95993.63;;;13.64;53.18
29169;BME280;16219;42.864;23.360;2023-04-08T10:35:42;95992.47;;;13.74;52.93
29169;BME280;16219;42.864;23.360;2023-04-08T10:38:12;95987.59;;;14.09;53.54
29169;BME280;16219;42.864;23.360;2023-04-08T10:40:40;95992.72;;;14.26;50.86
29169;BME280;16219;42.864;23.360;2023-04-08T10:43:08;95968.38;;;13.79;49.48
29169;BME280;16219;42.864;23.360;2023-04-08T10:45:35;95973.78;;;14.04;53.57
29169;BME280;16219;42.864;23.360;2023-04-08T10:48:17;95974.75;;;14.44;51.29
29169;BME280;16219;42.864;23.360;2023-04-08T10:50:51;95969.03;;;14.55;51.18
29169;BME280;16219;42.864;23.360;2023-04-08T10:53:24;95970.06;;;14.62;51.22
29169;BME280;16219;42.864;23.360;2023-04-08T10:55:52;95960.19;;;14.63;50.90
29169;BME280;16219;42.864;23.360;2023-04-08T10:58:20;95964.84;;;14.66;49.55
29169;BME280;16219;42.864;23.360;2023-04-08T11:00:47;95972.75;;;14.41;50.00
29169;BME280;16219;42.864;23.360;2023-04-08T11:03:16;95960.56;;;14.16;48.42
29169;BME280;16219;42.864;23.360;2023-04-08T11:05:43;95965.22;;;14.19;48.70
29169;BME280;16219;42.864;23.360;2023-04-08T11:08:10;95958.47;;;14.21;47.34
29169;BME280;16219;42.864;23.360;2023-04-08T11:10:38;95945.97;;;14.22;50.17
29169;BME280;16219;42.864;23.360;2023-04-08T11:13:06;95933.16;;;14.36;50.71
29169;BME280;16219;42.864;23.360;2023-04-08T11:15:35;95938.28;;;14.54;49.66
29169;BME280;16219;42.864;23.360;2023-04-08T11:18:03;95935.88;;;14.48;49.42
29169;BME280;16219;42.864;23.360;2023-04-08T11:20:32;95942.28;;;14.60;48.39
29169;BME280;16219;42.864;23.360;2023-04-08T11:23:01;95932.66;;;14.67;49.78
29169;BME280;16219;42.864;23.360;2023-04-08T11:25:29;95931.19;;;14.82;49.88
29169;BME280;16219;42.864;23.360;2023-04-08T11:27:57;95924.78;;;14.83;50.60
29169;BME280;16219;42.864;23.360;2023-04-08T11:30:25;95925.88;;;14.94;49.07
29169;BME280;16219;42.864;23.360;2023-04-08T11:32:53;95933.56;;;15.24;50.15
29169;BME280;16219;42.864;23.360;2023-04-08T11:35:20;95918.97;;;15.46;47.19
29169;BME280;16219;42.864;23.360;2023-04-08T11:37:51;95910.09;;;15.54;47.67
29169;BME280;16219;42.864;23.360;2023-04-08T11:40:20;95912.03;;;15.41;49.06
29169;BME280;16219;42.864;23.360;2023-04-08T11:42:49;95900.47;;;15.49;48.90
29169;BME280;16219;42.864;23.360;2023-04-08T11:45:18;95904.69;;;15.50;47.89
29169;BME280;16219;42.864;23.360;2023-04-08T11:47:47;95896.38;;;15.52;47.65
29169;BME280;16219;42.864;23.360;2023-04-08T11:50:22;95890.22;;;15.64;46.94
29169;BME280;16219;42.864;23.360;2023-04-08T11:52:52;95899.88;;;15.84;49.22
29169;BME280;16219;42.864;23.360;2023-04-08T11:55:24;95884.88;;;15.76;45.59
29169;BME280;16219;42.864;23.360;2023-04-08T11:57:52;95884.28;;;15.83;47.88
29169;BME280;16219;42.864;23.360;2023-04-08T12:00:20;95876.66;;;15.97;47.71
29169;BME280;16219;42.864;23.360;2023-04-08T12:02:48;95879.41;;;16.00;50.00
29169;BME280;16219;42.864;23.360;2023-04-08T12:05:16;95890.56;;;15.90;47.22
29169;BME280;16219;42.864;23.360;2023-04-08T12:07:43;95879.56;;;15.76;46.55
29169;BME280;16219;42.864;23.360;2023-04-08T12:10:13;95887.44;;;15.88;45.91
29169;BME280;16219;42.864;23.360;2023-04-08T12:12:40;95885.69;;;16.08;47.43
29169;BME280;16219;42.864;23.360;2023-04-08T12:15:08;95876.59;;;16.25;45.02
29169;BME280;16219;42.864;23.360;2023-04-08T12:17:36;95883.03;;;16.24;44.36
29169;BME280;16219;42.864;23.360;2023-04-08T12:20:05;95880.28;;;16.20;45.87
29169;BME280;16219;42.864;23.360;2023-04-08T12:22:32;95880.94;;;15.86;46.72
29169;BME280;16219;42.864;23.360;2023-04-08T12:24:59;95886.00;;;15.63;47.42
29169;BME280;16219;42.864;23.360;2023-04-08T12:27:29;95881.00;;;15.45;45.81
29169;BME280;16219;42.864;23.360;2023-04-08T12:29:58;95882.88;;;15.45;47.18
29169;BME280;16219;42.864;23.360;2023-04-08T12:32:25;95881.84;;;15.49;48.30
29169;BME280;16219;42.864;23.360;2023-04-08T12:34:53;95878.63;;;15.28;48.10
29169;BME280;16219;42.864;23.360;2023-04-08T12:37:20;95880.00;;;15.10;48.29
29169;BME280;16219;42.864;23.360;2023-04-08T12:39:47;95867.41;;;15.07;50.52
29169;BME280;16219;42.864;23.360;2023-04-08T12:42:15;95874.69;;;15.10;50.01
29169;BME280;16219;42.864;23.360;2023-04-08T12:44:44;95881.41;;;14.91;50.47
29169;BME280;16219;42.864;23.360;2023-04-08T12:47:11;95878.13;;;14.70;48.45
29169;BME280;16219;42.864;23.360;2023-04-08T12:49:39;95880.31;;;14.56;50.07
29169;BME280;16219;42.864;23.360;2023-04-08T12:52:06;95878.44;;;14.56;49.95
29169;BME280;16219;42.864;23.360;2023-04-08T12:54:33;95875.88;;;14.47;48.53
29169;BME280;16219;42.864;23.360;2023-04-08T12:57:01;95884.50;;;14.32;48.80
29169;BME280;16219;42.864;23.360;2023-04-08T12:59:29;95875.66;;;14.28;48.38
29169;BME280;16219;42.864;23.360;2023-04-08T13:01:58;95876.19;;;14.21;51.28